Time;durP1;ratioP1;P1;durP2;ratioP2;P2;SDS_P1;SDS_P2;PMS_P1;PMS_P2;Temp;Humidity;BMP_temperature;BMP_pressure;BME280_temperature;BME280_humidity;BME280_pressure;Samples;Min_cycle;Max_cycle;Signal;HPM_P1;HPM_P2
2021/07/13 00:01:13;;;;;;;3.10;1.37;;;19.40;99.90;;;;;;5087086;28;20704;-90
2021/07/13 00:03:41;;;;;;;3.20;1.77;;;19.40;99.90;;;;;;5090424;28;20631;-90
2021/07/13 00:06:10;;;;;;;1.60;1.50;;;19.30;99.90;;;;;;5090324;28;20655;-90
2021/07/13 00:08:38;;;;;;;1.93;1.53;;;19.30;99.90;;;;;;5090350;28;20619;-89
2021/07/13 00:11:05;;;;;;;2.50;1.53;;;19.30;99.90;;;;;;5078393;28;20660;-88
2021/07/13 00:13:32;;;;;;;1.67;1.20;;;19.10;99.90;;;;;;5090507;28;20630;-89
2021/07/13 00:16:00;;;;;;;2.30;1.37;;;19.10;99.90;;;;;;5090684;28;20657;-89
2021/07/13 00:18:27;;;;;;;3.30;1.20;;;19.10;99.90;;;;;;5090373;28;20619;-88
2021/07/13 00:20:54;;;;;;;2.40;1.67;;;19.10;99.90;;;;;;5090357;28;20662;-88
2021/07/13 00:23:22;;;;;;;1.53;1.43;;;19.10;99.90;;;;;;5100372;28;20611;-89
2021/07/13 00:25:49;;;;;;;2.07;1.30;;;19.00;99.90;;;;;;5105146;28;20661;-88
2021/07/13 00:28:16;;;;;;;1.67;1.20;;;19.10;99.90;;;;;;5110562;28;20636;-88
2021/07/13 00:30:43;;;;;;;5.20;1.30;;;19.00;99.90;;;;;;5110588;28;20699;-89
2021/07/13 00:33:10;;;;;;;2.37;1.70;;;18.90;99.90;;;;;;5112269;28;20975;-89
2021/07/13 00:35:37;;;;;;;3.80;1.60;;;19.00;99.90;;;;;;5114846;28;21527;-88
2021/07/13 00:38:05;;;;;;;2.27;1.80;;;19.00;99.90;;;;;;5114414;28;20614;-88
2021/07/13 00:40:33;;;;;;;3.50;2.00;;;18.90;99.90;;;;;;5114918;28;20598;-89
2021/07/13 00:43:01;;;;;;;2.27;2.13;;;18.80;99.90;;;;;;5113940;28;20611;-88
2021/07/13 00:45:28;;;;;;;2.90;2.47;;;18.80;99.90;;;;;;5108592;28;20977;-90
2021/07/13 00:47:55;;;;;;;3.27;2.63;;;18.80;99.90;;;;;;5114546;28;20642;-88
2021/07/13 00:50:25;;;;;;;2.53;2.33;;;18.90;99.90;;;;;;5114330;28;20611;-87
2021/07/13 00:52:53;;;;;;;2.50;2.07;;;18.90;99.90;;;;;;5114228;28;20684;-87
2021/07/13 00:55:20;;;;;;;2.63;2.43;;;18.80;99.90;;;;;;5110612;28;20664;-88
2021/07/13 00:57:49;;;;;;;3.10;2.90;;;18.90;99.90;;;;;;5093929;28;20611;-87
2021/07/13 01:00:18;;;;;;;3.20;2.40;;;18.90;99.90;;;;;;5088762;28;20643;-88
2021/07/13 01:02:48;;;;;;;2.00;1.90;;;19.00;99.90;;;;;;5098989;28;20610;-87
2021/07/13 01:05:18;;;;;;;2.10;1.90;;;18.70;99.90;;;;;;5094002;28;21069;-88
2021/07/13 01:07:59;;;;;;;2.20;1.93;;;18.60;99.90;;;;;;5093899;28;20633;-88
2021/07/13 01:10:36;;;;;;;2.37;2.13;;;18.60;99.90;;;;;;5091249;28;21256;-90
2021/07/13 01:13:31;;;;;;;2.57;1.93;;;18.60;99.90;;;;;;5105079;28;20670;-87
2021/07/13 01:16:07;;;;;;;2.17;1.70;;;18.60;99.90;;;;;;5096978;28;20627;-88
2021/07/13 01:18:41;;;;;;;2.20;1.60;;;18.50;99.90;;;;;;5086000;28;20723;-85
2021/07/13 01:21:33;;;;;;;1.50;1.30;;;18.50;99.90;;;;;;5080712;28;20623;-88
2021/07/13 01:24:16;;;;;;;2.10;1.30;;;18.10;99.90;;;;;;5083929;28;20633;-88
2021/07/13 01:26:57;;;;;;;1.67;1.53;;;18.00;99.90;;;;;;5113518;28;20656;-89
2021/07/13 01:29:29;;;;;;;2.50;1.40;;;18.20;99.90;;;;;;5099394;28;20965;-88
2021/07/13 01:32:00;;;;;;;1.50;1.40;;;18.10;99.90;;;;;;5093529;28;20722;-88
2021/07/13 01:34:32;;;;;;;2.80;1.63;;;18.10;99.90;;;;;;5087857;28;20735;-88
2021/07/13 01:37:02;;;;;;;3.27;1.93;;;18.20;99.90;;;;;;5099782;28;20742;-87
2021/07/13 01:39:32;;;;;;;4.70;1.80;;;18.20;99.90;;;;;;5113334;28;20612;-86
2021/07/13 01:42:06;;;;;;;2.10;1.90;;;18.10;99.90;;;;;;5113823;28;20713;-87
2021/07/13 01:44:38;;;;;;;5.17;1.80;;;18.20;99.90;;;;;;5104504;28;21017;-87
2021/07/13 01:47:07;;;;;;;3.67;1.83;;;18.00;99.90;;;;;;5113552;28;21288;-87
2021/07/13 01:49:35;;;;;;;3.07;1.47;;;18.00;99.90;;;;;;5113791;28;20718;-87
2021/07/13 01:52:06;;;;;;;2.50;1.60;;;18.00;99.90;;;;;;5113245;28;20620;-88
2021/07/13 01:54:38;;;;;;;8.20;1.87;;;18.00;99.90;;;;;;5102136;28;20733;-87
2021/07/13 01:57:08;;;;;;;2.93;1.67;;;17.90;99.90;;;;;;5086029;28;21244;-86
2021/07/13 01:59:40;;;;;;;3.33;1.43;;;17.80;99.90;;;;;;5092993;28;20952;-87
2021/07/13 02:02:11;;;;;;;3.13;2.10;;;17.70;99.90;;;;;;5092431;28;20991;-87
2021/07/13 02:04:39;;;;;;;5.43;1.27;;;17.70;99.90;;;;;;5092803;28;20632;-87
2021/07/13 02:07:10;;;;;;;1.43;1.30;;;17.70;99.90;;;;;;5092709;28;20743;-86
2021/07/13 02:09:39;;;;;;;4.47;1.80;;;17.80;99.90;;;;;;5105553;28;20716;-87
2021/07/13 02:12:09;;;;;;;2.60;1.80;;;17.70;99.90;;;;;;5093484;28;20653;-87
2021/07/13 02:14:41;;;;;;;2.73;1.83;;;17.70;99.90;;;;;;5094086;28;20628;-87
2021/07/13 02:17:09;;;;;;;2.83;2.23;;;17.70;99.90;;;;;;5091930;28;20631;-87
2021/07/13 02:19:37;;;;;;;4.07;2.23;;;17.60;99.90;;;;;;5092385;28;21029;-87
2021/07/13 02:22:07;;;;;;;1.93;1.83;;;17.70;99.90;;;;;;5092637;28;20638;-87
2021/07/13 02:24:34;;;;;;;2.20;2.00;;;17.70;99.90;;;;;;5092103;28;20614;-87
2021/07/13 02:27:07;;;;;;;2.27;1.93;;;17.70;99.90;;;;;;5087391;28;20656;-87
2021/07/13 02:29:40;;;;;;;5.43;2.53;;;17.70;99.90;;;;;;5091931;28;21277;-85
2021/07/13 02:32:19;;;;;;;6.00;2.97;;;17.60;99.90;;;;;;5091885;28;20952;-85
2021/07/13 02:34:49;;;;;;;6.40;3.00;;;17.60;99.90;;;;;;5091294;28;20617;-84
2021/07/13 02:37:18;;;;;;;17.23;4.40;;;17.60;99.90;;;;;;5091606;28;20608;-84
2021/07/13 02:39:47;;;;;;;4.77;2.80;;;17.70;99.90;;;;;;5091422;28;21253;-83
2021/07/13 02:42:18;;;;;;;6.63;3.50;;;17.80;99.90;;;;;;5091536;28;20622;-83
2021/07/13 02:44:49;;;;;;;3.80;3.40;;;17.80;99.90;;;;;;5091160;28;20627;-84
2021/07/13 02:47:22;;;;;;;3.80;3.10;;;17.70;99.90;;;;;;5091450;28;20638;-84
2021/07/13 02:49:53;;;;;;;3.50;3.20;;;17.70;99.90;;;;;;5091368;28;20613;-84
2021/07/13 02:52:25;;;;;;;3.07;2.77;;;17.70;99.90;;;;;;5090921;28;20642;-84
2021/07/13 02:54:57;;;;;;;4.83;2.70;;;17.70;99.90;;;;;;5090553;28;20643;-83
2021/07/13 02:57:25;;;;;;;2.97;2.67;;;17.60;99.90;;;;;;5069650;28;20665;-84
2021/07/13 02:59:56;;;;;;;3.20;2.87;;;17.60;99.90;;;;;;5071438;28;21210;-84
2021/07/13 03:02:25;;;;;;;2.60;2.40;;;17.50;99.90;;;;;;5090912;28;20594;-84
2021/07/13 03:04:54;;;;;;;3.07;2.53;;;17.50;99.90;;;;;;5090674;28;20714;-84
2021/07/13 03:07:21;;;;;;;3.17;2.53;;;17.50;99.90;;;;;;5090998;28;20673;-83
2021/07/13 03:09:50;;;;;;;5.70;3.20;;;17.50;99.90;;;;;;5091435;28;21144;-84
2021/07/13 03:12:17;;;;;;;4.60;2.17;;;17.40;99.90;;;;;;5083297;28;20781;-83
2021/07/13 03:14:45;;;;;;;2.17;1.90;;;17.40;99.90;;;;;;5090286;28;20629;-84
2021/07/13 03:17:16;;;;;;;4.10;3.07;;;17.30;99.90;;;;;;5090626;28;20953;-84
2021/07/13 03:19:44;;;;;;;3.17;2.03;;;17.30;99.90;;;;;;5090693;28;20614;-85
2021/07/13 03:22:18;;;;;;;3.33;3.03;;;17.40;99.90;;;;;;5091047;28;20670;-85
2021/07/13 03:24:46;;;;;;;2.60;2.40;;;17.40;99.90;;;;;;5090705;28;20664;-84
2021/07/13 03:27:13;;;;;;;2.13;2.00;;;17.30;99.90;;;;;;5091070;28;20619;-84
2021/07/13 03:29:41;;;;;;;2.27;2.17;;;17.30;99.90;;;;;;5102388;28;20632;-84
2021/07/13 03:32:09;;;;;;;3.50;2.40;;;17.30;99.90;;;;;;5110810;28;20629;-84
2021/07/13 03:34:37;;;;;;;3.03;2.80;;;17.20;99.90;;;;;;5110497;28;20840;-84
2021/07/13 03:37:05;;;;;;;2.40;2.20;;;17.20;99.90;;;;;;5111418;28;20607;-84
2021/07/13 03:39:32;;;;;;;3.20;2.10;;;17.10;99.90;;;;;;5111114;28;20936;-84
2021/07/13 03:42:01;;;;;;;3.00;2.70;;;17.20;99.90;;;;;;5111248;28;20651;-85
2021/07/13 03:44:28;;;;;;;5.23;2.80;;;17.20;99.90;;;;;;5104501;28;20657;-84
2021/07/13 03:46:55;;;;;;;3.53;2.30;;;17.20;99.90;;;;;;5111025;28;20953;-84
2021/07/13 03:49:25;;;;;;;4.20;2.70;;;17.30;99.90;;;;;;5110787;28;20633;-84
2021/07/13 03:51:53;;;;;;;5.17;2.70;;;17.30;99.90;;;;;;5111582;28;20974;-85
2021/07/13 03:54:22;;;;;;;3.00;2.80;;;17.30;99.90;;;;;;5110447;28;20708;-84
2021/07/13 03:56:50;;;;;;;2.63;2.43;;;17.30;99.90;;;;;;5094712;28;20971;-84
2021/07/13 03:59:18;;;;;;;3.50;3.20;;;17.30;99.90;;;;;;5084996;28;20632;-85
2021/07/13 04:01:45;;;;;;;4.53;3.60;;;17.30;99.90;;;;;;5090552;28;20615;-85
2021/07/13 04:04:12;;;;;;;4.30;3.90;;;17.20;99.90;;;;;;5090952;28;20610;-85
2021/07/13 04:06:39;;;;;;;4.00;3.70;;;17.10;99.90;;;;;;5090236;28;20620;-85
2021/07/13 04:09:09;;;;;;;4.90;4.03;;;17.20;99.90;;;;;;5093634;28;20657;-86
2021/07/13 04:11:37;;;;;;;4.13;3.83;;;17.40;99.90;;;;;;5094327;28;21193;-86
2021/07/13 04:14:05;;;;;;;5.43;4.90;;;17.40;99.90;;;;;;5092127;28;20623;-86
2021/07/13 04:16:34;;;;;;;5.60;4.50;;;17.40;99.90;;;;;;5092154;28;21186;-86
2021/07/13 04:19:01;;;;;;;5.83;5.33;;;17.40;99.90;;;;;;5094988;28;20614;-86
2021/07/13 04:21:28;;;;;;;6.03;5.53;;;17.40;99.90;;;;;;5094633;28;20606;-86
2021/07/13 04:23:55;;;;;;;4.93;4.47;;;17.50;99.90;;;;;;5094542;28;20605;-85
2021/07/13 04:26:24;;;;;;;6.03;4.90;;;17.50;99.90;;;;;;5093864;28;20606;-87
2021/07/13 04:28:51;;;;;;;5.90;5.30;;;17.60;99.90;;;;;;5106561;28;20647;-86
2021/07/13 04:31:18;;;;;;;5.70;5.20;;;17.60;99.90;;;;;;5110331;28;20645;-87
2021/07/13 04:33:46;;;;;;;6.97;4.73;;;17.60;99.90;;;;;;5114994;28;20622;-87
2021/07/13 04:36:13;;;;;;;5.00;4.57;;;17.70;99.90;;;;;;5117325;28;21236;-87
2021/07/13 04:38:41;;;;;;;6.20;5.70;;;17.60;99.90;;;;;;5114662;28;20612;-86
2021/07/13 04:41:08;;;;;;;5.90;5.37;;;17.60;99.90;;;;;;5114797;28;20615;-87
2021/07/13 04:43:36;;;;;;;7.13;6.53;;;17.70;99.90;;;;;;5114208;28;20632;-87
2021/07/13 04:46:04;;;;;;;7.40;6.80;;;17.80;99.90;;;;;;5114159;28;20595;-86
2021/07/13 04:48:31;;;;;;;7.07;6.47;;;17.90;99.90;;;;;;5114899;28;20625;-86
2021/07/13 04:50:57;;;;;;;6.33;5.73;;;17.90;99.90;;;;;;5114319;28;20630;-86
2021/07/13 04:53:26;;;;;;;5.70;5.30;;;17.90;99.90;;;;;;5115161;28;20614;-86
2021/07/13 04:55:53;;;;;;;6.10;5.60;;;18.00;99.90;;;;;;5106050;28;21182;-87
2021/07/13 04:58:20;;;;;;;6.13;5.53;;;18.00;99.90;;;;;;5094021;28;20669;-86
2021/07/13 05:00:49;;;;;;;6.80;5.07;;;17.90;99.90;;;;;;5093771;28;21005;-86
2021/07/13 05:03:16;;;;;;;7.20;4.57;;;17.90;99.90;;;;;;5094082;28;20624;-86
2021/07/13 05:05:43;;;;;;;6.13;5.53;;;17.90;99.90;;;;;;5093221;28;20931;-87
2021/07/13 05:08:10;;;;;;;5.50;5.10;;;17.90;99.90;;;;;;5093350;28;20662;-87
2021/07/13 05:10:37;;;;;;;8.80;5.37;;;17.90;99.90;;;;;;5093659;28;20615;-86
2021/07/13 05:13:09;;;;;;;5.17;4.77;;;17.90;99.90;;;;;;5093351;28;20633;-87
2021/07/13 05:15:36;;;;;;;5.07;4.67;;;17.80;99.90;;;;;;5092856;28;20983;-86
2021/07/13 05:18:06;;;;;;;5.17;4.73;;;17.70;99.90;;;;;;5091938;28;20719;-87
2021/07/13 05:20:33;;;;;;;5.77;5.27;;;17.80;99.90;;;;;;5093276;28;20617;-88
2021/07/13 05:23:06;;;;;;;6.00;5.37;;;17.80;99.90;;;;;;5093874;28;20611;-87
2021/07/13 05:25:33;;;;;;;6.03;5.43;;;17.80;99.90;;;;;;5092964;28;21229;-87
2021/07/13 05:28:00;;;;;;;6.10;5.50;;;17.90;99.90;;;;;;5090782;28;20647;-88
2021/07/13 05:30:28;;;;;;;5.70;5.30;;;18.00;99.90;;;;;;5110732;28;20689;-87
2021/07/13 05:32:55;;;;;;;5.33;4.93;;;18.10;99.90;;;;;;5097238;28;20627;-87
2021/07/13 05:35:25;;;;;;;5.20;4.80;;;18.00;99.90;;;;;;5093600;28;21152;-87
2021/07/13 05:37:51;;;;;;;5.07;4.67;;;18.10;99.90;;;;;;5093949;28;20618;-87
2021/07/13 05:40:19;;;;;;;5.67;5.10;;;18.00;99.90;;;;;;5094370;28;20650;-87
2021/07/13 05:42:46;;;;;;;6.10;5.60;;;17.90;99.90;;;;;;5112248;28;20623;-87
2021/07/13 05:45:14;;;;;;;9.13;6.20;;;17.90;99.90;;;;;;5115040;28;20614;-88
2021/07/13 05:47:41;;;;;;;7.20;6.50;;;18.00;99.90;;;;;;5117766;28;21134;-87
2021/07/13 05:50:10;;;;;;;7.97;7.27;;;18.10;99.90;;;;;;5073969;28;20645;-87
2021/07/13 05:52:39;;;;;;;8.30;7.50;;;18.10;99.90;;;;;;5074267;28;20681;-88
2021/07/13 05:55:08;;;;;;;8.10;7.37;;;18.00;99.90;;;;;;5112206;28;20696;-88
2021/07/13 05:57:35;;;;;;;7.30;6.70;;;18.10;99.90;;;;;;5093854;28;20676;-88
2021/07/13 06:00:02;;;;;;;7.23;6.53;;;18.10;99.90;;;;;;5093183;28;21192;-88
2021/07/13 06:02:29;;;;;;;5.50;5.00;;;18.10;99.90;;;;;;5093951;28;21159;-87
2021/07/13 06:05:00;;;;;;;5.70;5.20;;;18.10;99.90;;;;;;5094219;28;20615;-87
2021/07/13 06:07:27;;;;;;;5.70;4.83;;;18.10;99.90;;;;;;5093573;28;20623;-87
2021/07/13 06:09:57;;;;;;;4.83;4.53;;;18.20;99.90;;;;;;5092768;28;20650;-86
2021/07/13 06:12:24;;;;;;;6.10;5.50;;;18.10;99.90;;;;;;5093126;28;20635;-84
2021/07/13 06:14:51;;;;;;;5.50;5.00;;;18.10;99.90;;;;;;5093837;28;20620;-84
2021/07/13 06:17:18;;;;;;;5.80;5.27;;;18.00;99.90;;;;;;5093551;28;20650;-84
2021/07/13 06:19:45;;;;;;;5.30;4.90;;;18.00;99.90;;;;;;5092141;28;21208;-84
2021/07/13 06:22:12;;;;;;;4.90;4.50;;;18.00;99.90;;;;;;5091988;28;20607;-84
2021/07/13 06:24:39;;;;;;;4.47;4.07;;;18.10;99.90;;;;;;5093016;28;20602;-84
2021/07/13 06:27:07;;;;;;;4.97;4.50;;;18.10;99.90;;;;;;5093167;28;21148;-84
2021/07/13 06:29:34;;;;;;;5.13;4.67;;;18.10;99.90;;;;;;5086531;28;20647;-85
2021/07/13 06:32:01;;;;;;;5.67;5.00;;;18.10;99.90;;;;;;5082847;28;20628;-85
2021/07/13 06:34:28;;;;;;;3.50;3.30;;;18.10;99.90;;;;;;5097195;28;21171;-84
2021/07/13 06:36:55;;;;;;;3.37;3.07;;;18.20;99.90;;;;;;5093403;28;20611;-85
2021/07/13 06:39:22;;;;;;;5.50;3.73;;;18.40;99.90;;;;;;5091734;28;20612;-85
2021/07/13 06:41:49;;;;;;;3.13;2.93;;;18.40;99.90;;;;;;5092730;28;20613;-84
2021/07/13 06:44:18;;;;;;;3.40;3.20;;;18.50;99.90;;;;;;5092774;28;21176;-85
2021/07/13 06:46:44;;;;;;;4.73;3.87;;;18.60;99.90;;;;;;5094512;28;20632;-84
2021/07/13 06:49:11;;;;;;;3.67;3.37;;;18.60;99.90;;;;;;5093323;28;21240;-84
2021/07/13 06:51:39;;;;;;;5.10;4.33;;;18.50;99.90;;;;;;5094166;28;20615;-85
2021/07/13 06:54:06;;;;;;;2.40;2.20;;;18.50;99.90;;;;;;5093647;28;20603;-85
2021/07/13 06:56:33;;;;;;;2.60;2.13;;;18.50;99.90;;;;;;5102564;28;21102;-84
2021/07/13 06:59:00;;;;;;;3.20;2.63;;;18.50;99.90;;;;;;5103164;28;20616;-85
2021/07/13 07:01:28;;;;;;;5.20;4.00;;;18.50;99.90;;;;;;5094282;28;20616;-87
2021/07/13 07:03:55;;;;;;;3.13;2.63;;;18.40;99.90;;;;;;5083541;28;21609;-88
2021/07/13 07:06:23;;;;;;;2.37;2.27;;;18.40;99.90;;;;;;5091317;28;21249;-87
2021/07/13 07:08:50;;;;;;;2.40;2.20;;;18.40;99.90;;;;;;5095885;28;21557;-87
2021/07/13 07:11:18;;;;;;;2.50;2.30;;;18.30;99.90;;;;;;5101909;28;21195;-86
2021/07/13 07:13:45;;;;;;;2.60;2.40;;;18.30;99.90;;;;;;5092313;28;20642;-87
2021/07/13 07:16:12;;;;;;;2.30;2.20;;;18.20;99.90;;;;;;5111126;28;20701;-86
2021/07/13 07:18:41;;;;;;;3.43;3.13;;;18.30;99.90;;;;;;5104751;28;20733;-85
2021/07/13 07:21:08;;;;;;;3.33;3.03;;;18.20;99.90;;;;;;5089820;28;20715;-85
2021/07/13 07:23:35;;;;;;;3.37;3.07;;;18.30;99.90;;;;;;5090838;28;20616;-85
2021/07/13 07:26:02;;;;;;;4.60;2.70;;;18.30;99.90;;;;;;5091081;28;20615;-85
2021/07/13 07:28:29;;;;;;;3.60;3.10;;;18.30;99.90;;;;;;5093240;28;20616;-85
2021/07/13 07:30:57;;;;;;;4.40;3.60;;;18.30;99.90;;;;;;5088578;28;20618;-84
2021/07/13 07:33:25;;;;;;;3.97;2.97;;;18.40;99.90;;;;;;5092873;28;20674;-84
2021/07/13 07:35:53;;;;;;;5.60;2.97;;;18.30;99.90;;;;;;5090407;28;20715;-85
2021/07/13 07:38:20;;;;;;;3.93;3.63;;;18.20;99.90;;;;;;5090380;28;21250;-85
2021/07/13 07:40:47;;;;;;;4.03;3.63;;;18.20;99.90;;;;;;5090160;28;20860;-85
2021/07/13 07:43:14;;;;;;;3.90;3.50;;;18.20;99.90;;;;;;5095674;28;20619;-85
2021/07/13 07:45:41;;;;;;;3.43;3.07;;;18.30;99.90;;;;;;5090973;28;21168;-85
2021/07/13 07:48:08;;;;;;;3.60;3.30;;;18.30;99.90;;;;;;5102521;28;20630;-85
2021/07/13 07:50:35;;;;;;;3.77;3.47;;;18.20;99.90;;;;;;5088832;28;20710;-86
2021/07/13 07:53:04;;;;;;;3.90;3.50;;;18.20;99.90;;;;;;5089360;28;20628;-86
2021/07/13 07:55:32;;;;;;;6.83;3.67;;;18.20;99.90;;;;;;5088155;28;21231;-85
2021/07/13 07:58:00;;;;;;;3.70;3.40;;;18.10;99.90;;;;;;5088488;28;20634;-86
2021/07/13 08:00:27;;;;;;;4.30;3.67;;;18.00;99.90;;;;;;5104259;28;20616;-86
2021/07/13 08:02:54;;;;;;;4.23;3.93;;;18.00;99.90;;;;;;5090407;28;20636;-86
2021/07/13 08:05:37;;;;;;;4.63;4.20;;;18.00;99.90;;;;;;5086532;28;20719;-85
2021/07/13 08:08:05;;;;;;;4.10;3.70;;;18.00;99.90;;;;;;5088327;28;20634;-84
2021/07/13 08:10:32;;;;;;;5.70;4.07;;;18.00;99.90;;;;;;5079598;28;20675;-85
2021/07/13 08:13:00;;;;;;;4.10;3.70;;;18.00;99.90;;;;;;5085783;28;20638;-85
2021/07/13 08:15:27;;;;;;;5.33;3.93;;;17.90;99.90;;;;;;5089874;28;20639;-85
2021/07/13 08:17:55;;;;;;;3.97;3.53;;;18.00;99.90;;;;;;5091002;28;21199;-86
2021/07/13 08:20:22;;;;;;;3.87;3.57;;;17.90;99.90;;;;;;5068590;28;20609;-84
2021/07/13 08:22:49;;;;;;;5.13;3.90;;;17.90;99.90;;;;;;5070391;28;21188;-85
2021/07/13 08:25:21;;;;;;;3.87;3.57;;;17.90;99.90;;;;;;5087869;28;20974;-86
2021/07/13 08:27:49;;;;;;;4.43;4.03;;;17.90;99.90;;;;;;5091193;28;20715;-86
2021/07/13 08:30:19;;;;;;;5.23;4.80;;;18.00;99.90;;;;;;5108850;28;20638;-86
2021/07/13 08:32:46;;;;;;;4.10;3.70;;;18.10;99.90;;;;;;5111211;28;20605;-85
2021/07/13 08:35:14;;;;;;;4.40;3.93;;;18.20;99.90;;;;;;5110898;28;20624;-85
2021/07/13 08:37:41;;;;;;;5.67;4.53;;;18.20;99.90;;;;;;5109897;28;20726;-85
2021/07/13 08:40:10;;;;;;;3.73;3.40;;;18.30;99.90;;;;;;5110901;28;20607;-86
2021/07/13 08:42:40;;;;;;;4.33;3.93;;;18.20;99.90;;;;;;5110652;28;20607;-85
2021/07/13 08:45:09;;;;;;;4.20;3.80;;;18.20;99.90;;;;;;5110409;28;20625;-86
2021/07/13 08:47:37;;;;;;;4.57;4.23;;;18.20;99.90;;;;;;5102460;28;20944;-85
2021/07/13 08:50:05;;;;;;;6.30;4.67;;;18.10;99.90;;;;;;5090909;28;20680;-86
2021/07/13 08:52:33;;;;;;;5.53;3.90;;;18.00;99.90;;;;;;5081355;28;20677;-85
2021/07/13 08:55:00;;;;;;;6.00;5.17;;;18.00;99.90;;;;;;5092483;28;20627;-85
2021/07/13 08:57:27;;;;;;;8.27;4.97;;;17.90;99.90;;;;;;5093874;28;20603;-85
2021/07/13 08:59:55;;;;;;;5.50;5.00;;;17.90;99.90;;;;;;5093524;28;20677;-84
2021/07/13 09:02:22;;;;;;;4.97;4.50;;;17.90;99.90;;;;;;5093786;28;20622;-84
2021/07/13 09:04:49;;;;;;;4.97;4.57;;;17.90;99.90;;;;;;5093720;28;21214;-85
2021/07/13 09:07:18;;;;;;;5.23;4.77;;;18.00;99.90;;;;;;5093728;28;20695;-85
2021/07/13 09:09:48;;;;;;;6.53;5.03;;;18.00;99.90;;;;;;5092756;28;21200;-85
2021/07/13 09:12:17;;;;;;;5.40;3.70;;;18.00;99.90;;;;;;5094924;28;20952;-84
2021/07/13 09:14:54;;;;;;;1.60;1.50;;;18.00;99.90;;;;;;5094931;28;20627;-84
2021/07/13 09:17:34;;;;;;;1.40;1.30;;;17.70;99.90;;;;;;5094623;28;20609;-83
2021/07/13 09:20:09;;;;;;;1.10;0.80;;;17.70;99.90;;;;;;5076518;28;20801;-84
2021/07/13 09:22:38;;;;;;;2.33;0.80;;;17.70;99.90;;;;;;5084090;28;20616;-84
2021/07/13 09:25:33;;;;;;;2.83;0.80;;;17.50;99.90;;;;;;5094116;28;20649;-84
2021/07/13 09:28:11;;;;;;;0.50;0.50;;;17.40;99.90;;;;;;5040350;28;20630;-85
2021/07/13 09:30:39;;;;;;;1.00;1.00;;;17.30;99.90;;;;;;5114548;28;20668;-84
2021/07/13 09:33:18;;;;;;;0.90;0.90;;;17.30;99.90;;;;;;5091203;28;20614;-84
2021/07/13 09:36:15;;;;;;;1.00;0.50;;;17.00;99.90;;;;;;5107627;28;20655;-83
2021/07/13 09:38:53;;;;;;;1.23;0.40;;;16.90;99.90;;;;;;5076595;28;20979;-83
2021/07/13 09:41:21;;;;;;;0.63;0.43;;;16.90;99.90;;;;;;5093692;28;21023;-83
2021/07/13 09:43:52;;;;;;;1.50;0.73;;;16.90;99.90;;;;;;5094132;28;21153;-84
2021/07/13 09:46:33;;;;;;;1.13;0.60;;;16.80;99.90;;;;;;5093754;28;21042;-83
2021/07/13 09:49:16;;;;;;;0.60;0.60;;;16.80;99.90;;;;;;5094155;28;20938;-84
2021/07/13 09:51:45;;;;;;;2.20;0.43;;;16.90;99.90;;;;;;5092702;28;20617;-84
2021/07/13 09:54:33;;;;;;;1.97;0.50;;;16.80;99.90;;;;;;5092653;28;20644;-83
2021/07/13 09:57:01;;;;;;;2.33;0.87;;;16.70;99.90;;;;;;5092831;28;20621;-84
2021/07/13 09:59:28;;;;;;;1.70;0.90;;;16.70;99.90;;;;;;5092719;28;20597;-84
2021/07/13 10:01:55;;;;;;;1.53;1.03;;;16.80;99.90;;;;;;5093615;28;20614;-84
2021/07/13 10:04:23;;;;;;;1.83;0.60;;;16.80;99.90;;;;;;5093090;28;20742;-84
2021/07/13 10:06:52;;;;;;;0.53;0.50;;;16.80;99.90;;;;;;5093843;28;20616;-84
2021/07/13 10:09:24;;;;;;;1.53;0.60;;;16.70;99.90;;;;;;5092772;28;21173;-85
2021/07/13 10:11:51;;;;;;;0.40;0.40;;;16.80;99.90;;;;;;5092489;28;20710;-84
2021/07/13 10:14:19;;;;;;;1.10;0.80;;;16.60;99.90;;;;;;5094086;28;20628;-83
2021/07/13 10:16:47;;;;;;;2.10;1.10;;;16.60;99.90;;;;;;5099259;28;20961;-83
2021/07/13 10:19:15;;;;;;;1.30;1.00;;;16.60;99.90;;;;;;5102007;28;20713;-83
2021/07/13 10:21:46;;;;;;;1.53;0.70;;;16.40;99.90;;;;;;5092678;28;20596;-84
2021/07/13 10:24:14;;;;;;;1.23;0.60;;;16.30;99.90;;;;;;5092119;28;20612;-85
2021/07/13 10:26:47;;;;;;;1.13;0.57;;;16.30;99.90;;;;;;5092090;28;20608;-84
2021/07/13 10:29:37;;;;;;;1.73;0.50;;;16.40;99.90;;;;;;5107318;28;20625;-84
2021/07/13 10:32:06;;;;;;;1.57;0.53;;;16.50;99.90;;;;;;5112193;28;20624;-84
2021/07/13 10:34:57;;;;;;;0.63;0.60;;;16.50;99.90;;;;;;5112670;28;20603;-84
2021/07/13 10:37:29;;;;;;;1.23;0.40;;;16.50;99.90;;;;;;5113455;28;20611;-84
2021/07/13 10:40:33;;;;;;;0.50;0.40;;;16.50;99.90;;;;;;5099230;28;21065;-85
2021/07/13 10:43:03;;;;;;;0.40;0.40;;;16.40;99.90;;;;;;5091236;28;20633;-82
2021/07/13 10:45:31;;;;;;;0.50;0.40;;;16.40;99.90;;;;;;5091238;28;20743;-82
2021/07/13 10:48:01;;;;;;;0.60;0.40;;;16.20;99.90;;;;;;5093056;28;20621;-83
2021/07/13 10:50:53;;;;;;;3.43;0.83;;;16.30;99.90;;;;;;5093319;28;20659;-83
2021/07/13 10:53:30;;;;;;;0.50;0.47;;;16.40;99.90;;;;;;5091956;28;20627;-84
2021/07/13 10:56:00;;;;;;;0.43;0.40;;;16.40;99.90;;;;;;5091503;28;20612;-83
2021/07/13 10:58:30;;;;;;;0.40;0.30;;;16.40;99.90;;;;;;5093660;28;20972;-84
2021/07/13 11:01:07;;;;;;;1.30;0.40;;;16.10;99.90;;;;;;5093241;28;20945;-83
2021/07/13 11:03:57;;;;;;;0.40;0.30;;;16.10;99.90;;;;;;5092344;28;21175;-83
2021/07/13 11:06:40;;;;;;;0.50;0.30;;;15.90;99.90;;;;;;5095388;28;20608;-83
2021/07/13 11:09:37;;;;;;;0.30;0.30;;;16.20;99.90;;;;;;5098438;28;20659;-82
2021/07/13 11:12:16;;;;;;;3.57;0.63;;;16.20;99.90;;;;;;5073901;28;21002;-81
2021/07/13 11:14:58;;;;;;;0.60;0.43;;;16.40;99.90;;;;;;5092128;28;20633;-82
2021/07/13 11:17:28;;;;;;;0.87;0.60;;;16.40;99.90;;;;;;5091914;28;20610;-82
2021/07/13 11:20:06;;;;;;;0.43;0.43;;;16.40;99.90;;;;;;5086772;28;20620;-82
2021/07/13 11:22:35;;;;;;;0.73;0.70;;;16.40;99.90;;;;;;5092258;28;20600;-81
2021/07/13 11:25:04;;;;;;;3.80;0.70;;;16.50;99.90;;;;;;5091897;28;20610;-82
2021/07/13 11:27:32;;;;;;;0.50;0.50;;;16.50;99.90;;;;;;5092778;28;20643;-82
2021/07/13 11:30:00;;;;;;;0.60;0.50;;;16.40;99.90;;;;;;5111720;28;21099;-82
2021/07/13 11:32:27;;;;;;;0.60;0.40;;;16.30;99.90;;;;;;5106326;28;20960;-83
2021/07/13 11:34:54;;;;;;;1.50;0.63;;;16.30;99.90;;;;;;5091452;28;21216;-82
2021/07/13 11:37:24;;;;;;;0.87;0.50;;;16.40;99.90;;;;;;5091080;28;20670;-83
2021/07/13 11:39:59;;;;;;;1.23;0.80;;;16.30;99.90;;;;;;5092287;28;20608;-83
2021/07/13 11:42:27;;;;;;;1.00;0.43;;;16.40;99.90;;;;;;5092191;28;20596;-83
2021/07/13 11:45:02;;;;;;;0.50;0.40;;;16.30;99.90;;;;;;5101408;28;20972;-83
2021/07/13 11:47:29;;;;;;;0.60;0.50;;;16.40;99.90;;;;;;5113918;28;20715;-84
2021/07/13 11:49:56;;;;;;;0.47;0.40;;;16.50;99.90;;;;;;5112721;28;20652;-84
2021/07/13 11:52:24;;;;;;;1.00;0.80;;;16.40;99.90;;;;;;5108727;28;20708;-84
2021/07/13 11:54:56;;;;;;;1.43;0.50;;;16.50;99.90;;;;;;5099838;28;20607;-84
2021/07/13 11:57:23;;;;;;;0.70;0.70;;;16.50;99.90;;;;;;5099501;28;20650;-84
2021/07/13 11:59:51;;;;;;;0.50;0.40;;;16.40;99.90;;;;;;5091948;28;20616;-85
2021/07/13 12:02:19;;;;;;;0.50;0.40;;;16.40;99.90;;;;;;5094507;28;20720;-85
2021/07/13 12:04:48;;;;;;;0.50;0.40;;;16.40;99.90;;;;;;5072786;28;20629;-85
2021/07/13 12:07:16;;;;;;;0.60;0.57;;;16.30;99.90;;;;;;5071591;28;20622;-85
2021/07/13 12:09:44;;;;;;;1.33;0.60;;;16.30;99.90;;;;;;5100851;28;20662;-85
2021/07/13 12:12:13;;;;;;;1.00;0.80;;;16.30;99.90;;;;;;5107720;28;20645;-84
2021/07/13 12:14:42;;;;;;;1.57;0.60;;;16.30;99.90;;;;;;5111523;28;20624;-85
2021/07/13 12:17:12;;;;;;;0.80;0.80;;;16.40;99.90;;;;;;5098159;28;20609;-85
2021/07/13 12:19:39;;;;;;;1.30;0.73;;;16.30;99.90;;;;;;5087574;28;20819;-85
2021/07/13 12:22:09;;;;;;;0.70;0.70;;;16.50;99.90;;;;;;5095046;28;20619;-85
2021/07/13 12:24:37;;;;;;;0.50;0.50;;;16.50;99.90;;;;;;5091545;28;20638;-85
2021/07/13 12:27:09;;;;;;;0.50;0.50;;;16.50;99.90;;;;;;5094251;28;20678;-87
2021/07/13 12:29:41;;;;;;;1.43;0.70;;;16.40;99.90;;;;;;5106862;28;20619;-87
2021/07/13 12:32:18;;;;;;;0.70;0.70;;;16.40;99.90;;;;;;5095119;28;20648;-87
2021/07/13 12:34:45;;;;;;;0.50;0.50;;;16.50;99.90;;;;;;5095772;28;20628;-86
2021/07/13 12:37:15;;;;;;;0.83;0.60;;;16.50;99.90;;;;;;5094602;28;20943;-87
2021/07/13 12:39:44;;;;;;;2.67;0.83;;;16.50;99.90;;;;;;5095655;28;20711;-85
2021/07/13 12:42:16;;;;;;;0.80;0.63;;;16.60;99.90;;;;;;5102575;28;21244;-86
2021/07/13 12:44:51;;;;;;;1.13;0.87;;;16.70;99.90;;;;;;5094627;28;20608;-86
2021/07/13 12:47:24;;;;;;;0.70;0.60;;;16.80;99.90;;;;;;5102213;28;20657;-87
2021/07/13 12:50:22;;;;;;;0.50;0.50;;;16.90;99.90;;;;;;5102471;28;20685;-87
2021/07/13 12:52:59;;;;;;;0.50;0.50;;;16.90;99.90;;;;;;5095064;28;20634;-87
2021/07/13 12:55:29;;;;;;;0.83;0.73;;;16.90;99.90;;;;;;5093310;28;20621;-87
2021/07/13 12:58:14;;;;;;;0.97;0.70;;;16.90;99.90;;;;;;5093509;28;20621;-87
2021/07/13 13:00:43;;;;;;;2.43;0.50;;;16.90;99.90;;;;;;5106413;28;20720;-88
2021/07/13 13:03:14;;;;;;;0.60;0.60;;;17.00;99.90;;;;;;5094366;28;20664;-87